Time;durP1;ratioP1;P1;durP2;ratioP2;P2;SDS_P1;SDS_P2;PMS_P1;PMS_P2;Temp;Humidity;BMP_temperature;BMP_pressure;BME280_temperature;BME280_humidity;BME280_pressure;Samples;Min_cycle;Max_cycle;Signal;HPM_P1;HPM_P2
2021/10/20 00:01:22;;;;;;;21.33;13.50;;;;;;;16.23;100.00;100381.41;7397919;19;20434;-50
2021/10/20 00:03:54;;;;;;;29.53;15.90;;;;;;;16.24;100.00;100371.88;7403139;19;20738;-55
2021/10/20 00:06:24;;;;;;;26.60;17.00;;;;;;;16.36;100.00;100368.53;7393946;19;20499;-53
2021/10/20 00:08:54;;;;;;;24.37;17.40;;;;;;;16.32;100.00;100360.66;7403002;19;20447;-56
2021/10/20 00:11:23;;;;;;;24.23;14.87;;;;;;;16.20;100.00;100377.03;7395956;19;20938;-54
2021/10/20 00:13:53;;;;;;;28.27;16.27;;;;;;;16.22;100.00;100364.03;7403510;19;20885;-57
2021/10/20 00:16:23;;;;;;;26.27;16.17;;;;;;;16.20;100.00;100361.41;7396158;19;20494;-52
2021/10/20 00:18:55;;;;;;;25.50;14.60;;;;;;;16.05;100.00;100372.50;7404557;19;20869;-54
2021/10/20 00:21:27;;;;;;;25.00;14.00;;;;;;;15.99;100.00;100355.94;7396214;19;20411;-55
2021/10/20 00:23:59;;;;;;;27.90;18.10;;;;;;;16.08;100.00;100360.38;7403553;19;20438;-57
2021/10/20 00:26:29;;;;;;;27.20;19.13;;;;;;;16.04;100.00;100349.06;7384027;19;20899;-56
2021/10/20 00:28:58;;;;;;;27.97;18.60;;;;;;;16.01;100.00;100349.03;7402678;19;20380;-53
2021/10/20 00:31:28;;;;;;;31.43;16.50;;;;;;;15.89;100.00;100347.13;7396723;19;20423;-55
2021/10/20 00:34:00;;;;;;;25.47;18.10;;;;;;;15.90;100.00;100343.66;7402770;19;20488;-56
2021/10/20 00:36:29;;;;;;;28.43;16.93;;;;;;;15.84;100.00;100335.78;7397242;19;20424;-56
2021/10/20 00:38:59;;;;;;;30.10;17.70;;;;;;;15.88;100.00;100342.75;7403378;19;20386;-57
2021/10/20 00:41:30;;;;;;;27.43;15.67;;;;;;;15.72;100.00;100339.06;7395950;19;20757;-55
2021/10/20 00:44:00;;;;;;;27.10;16.90;;;;;;;15.74;100.00;100340.84;7406843;19;20899;-55
2021/10/20 00:46:30;;;;;;;29.20;17.70;;;;;;;15.74;100.00;100340.84;7395791;19;20873;-54
2021/10/20 00:49:02;;;;;;;28.30;18.03;;;;;;;15.72;100.00;100321.75;7402529;19;20392;-58
2021/10/20 00:51:32;;;;;;;28.30;17.20;;;;;;;15.74;100.00;100313.97;7381847;19;20474;-54
2021/10/20 00:54:01;;;;;;;32.50;17.80;;;;;;;15.69;100.00;100321.69;7402329;19;20523;-55
2021/10/20 00:56:31;;;;;;;30.37;16.80;;;;;;;15.78;100.00;100316.63;7395091;19;20429;-52
2021/10/20 00:59:01;;;;;;;23.53;14.93;;;;;;;15.65;100.00;100314.72;7403034;19;20905;-52
2021/10/20 01:01:31;;;;;;;29.60;16.70;;;;;;;15.70;100.00;100306.97;7395692;19;20775;-54
2021/10/20 01:04:03;;;;;;;23.80;15.10;;;;;;;15.71;100.00;100304.41;7402283;19;20868;-54
2021/10/20 01:06:34;;;;;;;26.87;16.03;;;;;;;15.69;100.00;100294.84;7395347;19;20487;-54
2021/10/20 01:09:03;;;;;;;30.90;14.63;;;;;;;15.57;100.00;100296.41;7400143;19;20416;-53
2021/10/20 01:11:33;;;;;;;30.70;16.20;;;;;;;15.61;100.00;100285.19;7383775;19;20419;-56
2021/10/20 01:14:02;;;;;;;30.13;15.13;;;;;;;15.65;100.00;100283.53;7405210;19;20491;-57
2021/10/20 01:16:32;;;;;;;22.30;16.60;;;;;;;15.68;100.00;100275.75;7370058;19;20423;-55
2021/10/20 01:19:04;;;;;;;27.80;15.23;;;;;;;15.57;100.00;100266.91;7402295;19;20834;-52
2021/10/20 01:21:36;;;;;;;26.63;12.57;;;;;;;15.48;100.00;100259.91;7371658;19;20767;-56
2021/10/20 01:24:06;;;;;;;24.60;14.90;;;;;;;15.51;100.00;100260.81;7401589;19;20483;-52
2021/10/20 01:26:36;;;;;;;26.60;15.50;;;;;;;15.51;100.00;100273.81;7372548;19;20467;-52
2021/10/20 01:29:06;;;;;;;18.77;12.47;;;;;;;15.51;100.00;100249.53;7401249;19;20398;-55
2021/10/20 01:31:35;;;;;;;24.80;13.20;;;;;;;15.41;100.00;100243.34;7395254;19;20415;-53
2021/10/20 01:34:04;;;;;;;23.87;13.17;;;;;;;15.35;100.00;100251.03;7401318;19;20483;-57
2021/10/20 01:36:37;;;;;;;25.03;15.03;;;;;;;15.33;100.00;100244.97;7366485;19;20423;-52
2021/10/20 01:39:06;;;;;;;23.57;14.10;;;;;;;15.35;100.00;100243.25;7400627;19;20870;-51
2021/10/20 01:41:36;;;;;;;23.93;14.57;;;;;;;15.32;100.00;100243.19;7375763;19;20421;-59
2021/10/20 01:44:08;;;;;;;20.93;13.23;;;;;;;15.25;100.00;100245.72;7400639;19;20427;-57
2021/10/20 01:46:37;;;;;;;21.17;14.50;;;;;;;15.30;100.00;100239.69;7369633;19;20406;-55
2021/10/20 01:49:07;;;;;;;22.40;14.10;;;;;;;15.19;100.00;100243.03;7400759;19;20388;-54
2021/10/20 01:51:39;;;;;;;24.33;13.90;;;;;;;15.18;100.00;100233.47;7397507;19;20442;-55
2021/10/20 01:54:09;;;;;;;18.80;11.10;;;;;;;15.11;100.00;100240.31;7400662;19;20414;-55
2021/10/20 01:56:39;;;;;;;21.60;11.20;;;;;;;15.13;100.00;100227.38;7371305;19;20415;-50
2021/10/20 01:59:08;;;;;;;25.27;13.27;;;;;;;15.09;100.00;100225.56;7401054;19;20850;-57
2021/10/20 02:01:38;;;;;;;21.53;13.63;;;;;;;15.09;100.00;100230.75;7391763;19;20688;-53
2021/10/20 02:04:11;;;;;;;20.83;12.37;;;;;;;15.07;100.00;100217.72;7400355;19;20720;-51
2021/10/20 02:06:44;;;;;;;21.83;13.90;;;;;;;15.01;100.00;100207.25;7373686;19;20755;-58
2021/10/20 02:09:14;;;;;;;24.73;13.30;;;;;;;15.03;100.00;100202.94;7400777;19;20667;-59
2021/10/20 02:11:44;;;;;;;20.47;12.43;;;;;;;15.08;100.00;100209.09;7372467;19;20434;-56
2021/10/20 02:14:14;;;;;;;22.27;10.53;;;;;;;15.01;100.00;100204.66;7400102;19;20754;-56
2021/10/20 02:16:44;;;;;;;18.20;11.90;;;;;;;15.04;100.00;100203.84;7370075;19;20415;-56
2021/10/20 02:19:14;;;;;;;18.83;10.97;;;;;;;14.98;100.00;100182.09;7400530;19;20395;-57
2021/10/20 02:21:46;;;;;;;23.63;11.37;;;;;;;14.98;100.00;100169.13;7373513;19;20415;-57
2021/10/20 02:24:15;;;;;;;20.00;12.80;;;;;;;15.04;100.00;100175.25;7399644;19;20426;-55
2021/10/20 02:26:44;;;;;;;18.70;10.73;;;;;;;15.04;100.00;100173.53;7369828;19;20414;-54
2021/10/20 02:29:14;;;;;;;17.97;9.03;;;;;;;15.01;100.00;100172.63;7399955;19;20451;-55
2021/10/20 02:31:46;;;;;;;20.17;11.40;;;;;;;14.98;100.00;100163.91;7372364;19;20436;-55
2021/10/20 02:34:16;;;;;;;14.93;9.80;;;;;;;14.96;100.00;100159.56;7399317;19;20463;-58
2021/10/20 02:36:49;;;;;;;17.50;10.97;;;;;;;15.02;100.00;100163.97;7392432;19;20438;-52
2021/10/20 02:39:18;;;;;;;17.83;9.83;;;;;;;14.97;100.00;100159.59;7399908;19;20384;-57
2021/10/20 02:41:48;;;;;;;18.37;9.90;;;;;;;15.04;100.00;100157.97;7369670;19;20717;-52
2021/10/20 02:44:17;;;;;;;18.57;9.80;;;;;;;15.16;100.00;100151.16;7398858;19;20428;-57
2021/10/20 02:46:47;;;;;;;17.40;10.57;;;;;;;15.17;100.00;100146.00;7375528;19;20411;-57
2021/10/20 02:49:16;;;;;;;16.30;10.60;;;;;;;15.14;100.00;100151.16;7397551;19;20897;-54
2021/10/20 02:51:48;;;;;;;18.93;11.00;;;;;;;15.10;100.00;100154.56;7379691;19;20732;-54
2021/10/20 02:54:19;;;;;;;15.43;9.43;;;;;;;15.06;100.00;100144.97;7398680;19;20419;-55
2021/10/20 02:56:49;;;;;;;16.90;10.33;;;;;;;15.13;100.00;100136.44;7361978;19;20466;-55
2021/10/20 02:59:18;;;;;;;13.83;9.67;;;;;;;15.12;100.00;100140.75;7399339;19;20410;-55
2021/10/20 03:01:48;;;;;;;12.83;9.10;;;;;;;15.17;100.00;100135.59;7370737;19;20403;-59
2021/10/20 03:04:17;;;;;;;14.20;9.20;;;;;;;15.29;100.00;100134.00;7398306;19;20720;-59
2021/10/20 03:06:49;;;;;;;14.17;7.93;;;;;;;15.19;100.00;100128.72;7370505;19;20502;-57
2021/10/20 03:09:19;;;;;;;13.50;8.70;;;;;;;15.27;100.00;100127.94;7399072;19;20388;-57
2021/10/20 03:11:48;;;;;;;9.93;7.63;;;;;;;15.24;100.00;100121.81;7382946;19;20479;-57
2021/10/20 03:14:18;;;;;;;11.70;8.37;;;;;;;15.23;100.00;100124.44;7397932;19;20423;-56
2021/10/20 03:16:47;;;;;;;14.57;9.40;;;;;;;15.19;100.00;100122.63;7368559;19;20423;-58
2021/10/20 03:19:17;;;;;;;14.23;8.60;;;;;;;15.18;100.00;100119.16;7398737;19;20384;-58
2021/10/20 03:21:46;;;;;;;10.00;6.40;;;;;;;15.19;100.00;100110.53;7370249;19;20696;-54
2021/10/20 03:24:18;;;;;;;12.30;7.30;;;;;;;15.14;100.00;100119.97;7397604;19;20735;-58
2021/10/20 03:26:48;;;;;;;10.27;6.93;;;;;;;15.14;100.00;100107.00;7367569;19;20423;-53
2021/10/20 03:29:17;;;;;;;12.20;8.07;;;;;;;15.19;100.00;100104.44;7398522;19;20464;-51
2021/10/20 03:31:47;;;;;;;11.70;6.57;;;;;;;15.12;100.00;100103.47;7364686;19;20417;-52
2021/10/20 03:34:16;;;;;;;9.90;7.47;;;;;;;15.19;100.00;100113.13;7401590;19;20427;-54
2021/10/20 03:36:46;;;;;;;13.70;8.17;;;;;;;15.16;100.00;100102.69;7385599;19;20498;-57
2021/10/20 03:39:15;;;;;;;9.33;6.50;;;;;;;15.12;100.00;100100.88;7398250;19;20685;-53
2021/10/20 03:41:47;;;;;;;12.20;7.20;;;;;;;15.15;100.00;100085.34;7367443;19;20459;-56
2021/10/20 03:44:17;;;;;;;15.47;6.77;;;;;;;15.10;100.00;100087.91;7397101;19;20503;-50
2021/10/20 03:46:46;;;;;;;13.63;7.93;;;;;;;15.05;100.00;100079.16;7363866;19;20403;-54
2021/10/20 03:49:15;;;;;;;13.63;7.63;;;;;;;15.01;100.00;100084.31;7398010;19;20376;-55
2021/10/20 03:51:45;;;;;;;12.67;8.10;;;;;;;15.00;100.00;100080.84;7366434;19;20403;-54
2021/10/20 03:54:14;;;;;;;13.30;8.13;;;;;;;14.94;100.00;100075.56;7396735;19;20415;-58
2021/10/20 03:56:46;;;;;;;14.30;7.40;;;;;;;14.98;100.00;100067.81;7370893;19;20506;-54
2021/10/20 03:59:16;;;;;;;13.00;7.70;;;;;;;14.91;100.00;100066.00;7398091;19;20463;-54
2021/10/20 04:01:45;;;;;;;11.20;7.17;;;;;;;14.86;100.00;100046.88;7378535;19;20395;-54
2021/10/20 04:04:15;;;;;;;10.90;7.10;;;;;;;14.83;100.00;100036.47;7403430;19;20423;-55
2021/10/20 04:06:44;;;;;;;11.57;7.07;;;;;;;14.82;100.00;100037.34;7374727;19;20395;-58
2021/10/20 04:09:14;;;;;;;10.17;7.20;;;;;;;14.82;100.00;100045.97;7404912;19;20841;-56
2021/10/20 04:11:43;;;;;;;13.03;7.00;;;;;;;14.79;100.00;100032.97;7397993;19;20940;-51
2021/10/20 04:14:16;;;;;;;9.37;6.30;;;;;;;14.75;100.00;100030.28;7403638;19;20497;-49
2021/10/20 04:16:45;;;;;;;10.83;7.10;;;;;;;14.75;100.00;100025.97;7371239;19;20401;-54
2021/10/20 04:19:15;;;;;;;10.00;6.93;;;;;;;14.75;100.00;100022.50;7404566;19;20394;-59
2021/10/20 04:21:44;;;;;;;12.67;7.57;;;;;;;14.70;100.00;100025.00;7397758;19;20431;-56
2021/10/20 04:24:13;;;;;;;12.27;7.43;;;;;;;14.67;100.00;100024.97;7403221;19;20415;-55
2021/10/20 04:26:43;;;;;;;12.00;6.83;;;;;;;14.64;100.00;100023.22;7396514;19;20421;-55
2021/10/20 04:29:15;;;;;;;13.63;7.13;;;;;;;14.66;100.00;100013.72;7404431;19;20461;-55
2021/10/20 04:31:45;;;;;;;9.67;6.83;;;;;;;14.61;100.00;100011.91;7371096;19;20923;-59
2021/10/20 04:34:14;;;;;;;14.60;7.93;;;;;;;14.56;100.00;100019.66;7402810;19;20430;-55
2021/10/20 04:36:44;;;;;;;20.00;7.47;;;;;;;14.58;100.00;100020.53;7396774;19;20423;-54
2021/10/20 04:39:15;;;;;;;14.30;7.40;;;;;;;14.59;100.00;100011.91;7403988;19;20428;-55
2021/10/20 04:41:44;;;;;;;11.50;7.07;;;;;;;14.48;100.00;100001.38;7374816;19;20435;-57
2021/10/20 04:44:16;;;;;;;16.27;7.40;;;;;;;14.58;100.00;100005.81;7405259;19;20431;-51
2021/10/20 04:46:46;;;;;;;15.47;8.93;;;;;;;14.52;100.00;100000.53;7373710;19;20925;-57
2021/10/20 04:49:15;;;;;;;17.03;10.60;;;;;;;14.56;100.00;100009.28;7406344;19;20406;-56
2021/10/20 04:51:45;;;;;;;18.77;10.40;;;;;;;14.56;100.00;99996.28;7388869;19;20694;-47
2021/10/20 04:54:14;;;;;;;23.53;13.80;;;;;;;14.60;100.00;99998.06;7402302;19;20494;-57
2021/10/20 04:56:44;;;;;;;19.80;12.07;;;;;;;14.51;100.00;99991.00;7371735;19;20423;-54
2021/10/20 04:59:13;;;;;;;23.53;14.80;;;;;;;14.56;100.00;99985.91;7403143;19;20721;-53
2021/10/20 05:01:45;;;;;;;22.70;12.73;;;;;;;14.60;100.00;99982.47;7368644;19;20410;-57
2021/10/20 05:04:15;;;;;;;17.50;11.47;;;;;;;14.57;100.00;99977.28;7401909;19;20407;-54
2021/10/20 05:06:44;;;;;;;15.40;11.50;;;;;;;14.57;100.00;99966.88;7368616;19;20395;-58
2021/10/20 05:09:14;;;;;;;15.70;10.97;;;;;;;14.56;100.00;99965.16;7404289;19;20402;-55
2021/10/20 05:11:43;;;;;;;24.27;7.97;;;;;;;14.52;100.00;99964.22;7365215;19;20427;-54
2021/10/20 05:14:13;;;;;;;10.40;6.83;;;;;;;14.53;100.00;99967.69;7401549;19;20475;-52
2021/10/20 05:16:45;;;;;;;12.77;7.17;;;;;;;14.63;100.00;99971.28;7372701;19;20503;-57
2021/10/20 05:19:14;;;;;;;14.43;6.63;;;;;;;14.53;100.00;99963.38;7402582;19;20893;-53
2021/10/20 05:21:44;;;;;;;10.20;6.40;;;;;;;14.52;100.00;99953.81;7367985;19;20678;-53
2021/10/20 05:24:13;;;;;;;8.80;4.93;;;;;;;14.50;100.00;99944.31;7401213;19;20712;-57
2021/10/20 05:26:43;;;;;;;11.27;6.47;;;;;;;14.52;100.00;99948.63;7369716;19;20427;-56
2021/10/20 05:29:12;;;;;;;20.33;6.53;;;;;;;14.52;100.00;99938.25;7402035;19;20396;-50
2021/10/20 05:31:44;;;;;;;10.20;6.73;;;;;;;14.51;100.00;99935.66;7364694;19;20489;-56
2021/10/20 05:34:14;;;;;;;8.97;5.80;;;;;;;14.44;100.00;99940.78;7401008;19;20420;-52
2021/10/20 05:36:43;;;;;;;9.77;5.63;;;;;;;14.51;100.00;99933.06;7394476;19;20482;-57
2021/10/20 05:39:13;;;;;;;13.00;7.10;;;;;;;14.51;100.00;99922.69;7401695;19;20658;-51
2021/10/20 05:41:42;;;;;;;10.73;5.57;;;;;;;14.51;100.00;99925.28;7373392;19;20479;-51
2021/10/20 05:44:13;;;;;;;12.70;6.93;;;;;;;14.60;100.00;99925.38;7400539;19;20483;-58
2021/10/20 05:46:46;;;;;;;9.50;6.60;;;;;;;14.57;100.00;99922.75;7370494;19;20399;-54
2021/10/20 05:49:15;;;;;;;10.50;5.67;;;;;;;14.49;100.00;99924.38;7401475;19;20451;-53
2021/10/20 05:51:45;;;;;;;17.93;6.87;;;;;;;14.61;100.00;99911.53;7393896;19;20431;-54
2021/10/20 05:54:14;;;;;;;10.80;6.83;;;;;;;14.61;100.00;99906.34;7400368;19;20420;-50
2021/10/20 05:56:44;;;;;;;9.63;6.07;;;;;;;14.58;100.00;99895.94;7369348;19;20418;-57
2021/10/20 05:59:14;;;;;;;9.27;6.20;;;;;;;14.55;100.00;99899.38;7400840;19;20458;-54
2021/10/20 06:01:46;;;;;;;8.93;5.73;;;;;;;14.57;100.00;99895.06;7368023;19;20471;-55
2021/10/20 06:04:16;;;;;;;10.00;6.17;;;;;;;14.58;100.00;99893.34;7399725;19;21025;-54
2021/10/20 06:06:46;;;;;;;10.80;6.30;;;;;;;14.63;100.00;99894.28;7392662;19;20490;-58
2021/10/20 06:09:15;;;;;;;9.77;5.63;;;;;;;14.58;100.00;99898.53;7400609;19;20383;-56
2021/10/20 06:11:45;;;;;;;7.67;4.70;;;;;;;14.51;100.00;99896.72;7368021;19;20407;-56
2021/10/20 06:14:14;;;;;;;13.37;6.10;;;;;;;14.59;100.00;99895.09;7399441;19;20794;-54
2021/10/20 06:16:46;;;;;;;8.30;5.50;;;;;;;14.61;100.00;99885.56;7369221;19;20714;-59
2021/10/20 06:19:16;;;;;;;11.70;7.07;;;;;;;14.55;100.00;99889.00;7401870;19;20402;-59
2021/10/20 06:21:46;;;;;;;9.67;6.00;;;;;;;14.54;100.00;99882.06;7369628;19;20483;-58
2021/10/20 06:24:16;;;;;;;9.33;6.20;;;;;;;14.56;100.00;99882.94;7400658;19;20423;-54
2021/10/20 06:26:45;;;;;;;7.87;5.83;;;;;;;14.60;100.00;99878.66;7391228;19;20433;-53
2021/10/20 06:29:16;;;;;;;8.93;5.60;;;;;;;14.70;100.00;99880.50;7401048;19;20467;-54
2021/10/20 06:31:48;;;;;;;10.10;5.40;;;;;;;14.65;100.00;99874.38;7391307;19;20455;-53
2021/10/20 06:34:18;;;;;;;8.10;4.90;;;;;;;14.62;100.00;99866.59;7403452;19;20435;-58
2021/10/20 06:36:47;;;;;;;10.00;6.13;;;;;;;14.68;100.00;99882.19;7392745;19;20423;-55
2021/10/20 06:39:20;;;;;;;10.60;5.13;;;;;;;14.66;100.00;99870.94;7403265;19;20459;-56
2021/10/20 06:41:50;;;;;;;7.70;4.70;;;;;;;14.61;100.00;99862.22;7364020;19;20415;-54
2021/10/20 06:44:20;;;;;;;8.43;5.27;;;;;;;14.71;100.00;99861.47;7398654;19;20486;-56
2021/10/20 06:46:52;;;;;;;9.77;5.60;;;;;;;14.73;100.00;99845.91;7364107;19;20501;-55
2021/10/20 06:49:21;;;;;;;9.67;5.50;;;;;;;14.77;100.00;99833.88;7399359;19;20404;-58
2021/10/20 06:51:51;;;;;;;9.63;5.63;;;;;;;14.80;100.00;99833.88;7385308;19;20511;-57
2021/10/20 06:54:20;;;;;;;13.30;6.70;;;;;;;14.78;100.00;99828.69;7398716;19;20752;-56
2021/10/20 06:56:51;;;;;;;15.17;6.10;;;;;;;14.79;100.00;99842.53;7392221;19;20411;-54
2021/10/20 06:59:22;;;;;;;9.17;6.47;;;;;;;14.78;100.00;99833.00;7399055;19;20402;-58
2021/10/20 07:01:54;;;;;;;9.53;5.97;;;;;;;14.70;100.00;99838.09;7369272;19;20421;-58
2021/10/20 07:04:24;;;;;;;11.20;5.90;;;;;;;14.74;100.00;99841.56;7400175;19;20420;-58
2021/10/20 07:06:55;;;;;;;8.47;4.90;;;;;;;14.66;100.00;99839.78;7365649;19;20774;-58
2021/10/20 07:09:25;;;;;;;9.40;5.03;;;;;;;14.72;100.00;99811.28;7399044;19;20858;-55
2021/10/20 07:11:54;;;;;;;11.20;5.37;;;;;;;14.74;100.00;99813.03;7368496;19;20423;-54
2021/10/20 07:14:24;;;;;;;8.97;5.47;;;;;;;14.74;100.00;99815.63;7397961;19;20434;-54
2021/10/20 07:16:57;;;;;;;8.30;5.53;;;;;;;14.77;100.00;99813.94;7370300;19;20431;-51
2021/10/20 07:19:27;;;;;;;11.50;7.10;;;;;;;14.80;100.00;99834.78;7401849;19;20410;-59
2021/10/20 07:21:58;;;;;;;13.70;7.10;;;;;;;14.78;100.00;99813.13;7372130;19;20499;-56
2021/10/20 07:24:28;;;;;;;9.27;4.87;;;;;;;14.82;100.00;99780.25;7398783;19;20419;-53
2021/10/20 07:26:57;;;;;;;7.77;5.23;;;;;;;14.80;100.00;99808.81;7362151;19;20427;-52
2021/10/20 07:29:27;;;;;;;12.37;5.73;;;;;;;14.84;100.00;99807.09;7398348;19;20384;-51
2021/10/20 07:31:59;;;;;;;13.43;6.30;;;;;;;14.85;100.00;99806.25;7367447;19;20387;-56
2021/10/20 07:34:28;;;;;;;13.87;5.47;;;;;;;14.83;100.00;99800.19;7398161;19;20475;-51
2021/10/20 07:36:58;;;;;;;11.40;6.70;;;;;;;14.88;100.00;99785.50;7377797;19;20754;-55
2021/10/20 07:39:27;;;;;;;9.13;5.80;;;;;;;14.87;100.00;99777.69;7410295;19;20406;-56
2021/10/20 07:41:57;;;;;;;10.53;7.00;;;;;;;14.92;100.00;99766.47;7380299;19;20423;-52
2021/10/20 07:44:26;;;;;;;11.00;6.37;;;;;;;14.96;100.00;99772.56;7404177;19;20911;-55
2021/10/20 07:46:58;;;;;;;12.00;6.80;;;;;;;14.95;100.00;99758.72;7389895;19;20714;-54
2021/10/20 07:49:28;;;;;;;8.30;5.57;;;;;;;14.97;100.00;99770.00;7405694;19;20386;-53
2021/10/20 07:51:58;;;;;;;9.20;5.57;;;;;;;15.01;100.00;99765.69;7376724;19;20531;-52
2021/10/20 07:54:28;;;;;;;10.67;6.93;;;;;;;15.06;100.00;99765.72;7406753;19;20886;-53
2021/10/20 07:56:58;;;;;;;13.63;6.40;;;;;;;15.07;100.00;99759.69;7372440;19;20438;-55
2021/10/20 07:59:28;;;;;;;14.57;7.10;;;;;;;15.03;100.00;99742.34;7404939;19;20443;-54
2021/10/20 08:02:00;;;;;;;6.50;4.23;;;;;;;15.04;100.00;99754.44;7380400;19;20443;-51
2021/10/20 08:04:29;;;;;;;10.57;5.80;;;;;;;15.07;100.00;99749.28;7403467;19;20423;-54
2021/10/20 08:06:59;;;;;;;16.53;5.80;;;;;;;15.09;100.00;99753.63;7388940;19;20423;-55
2021/10/20 08:09:31;;;;;;;14.47;6.30;;;;;;;15.11;100.00;99733.72;7405103;19;20388;-55
2021/10/20 08:12:00;;;;;;;14.57;7.70;;;;;;;15.12;100.00;99726.78;7398230;19;20475;-54
2021/10/20 08:14:32;;;;;;;13.73;6.80;;;;;;;15.09;100.00;99716.41;7401987;19;20457;-53
2021/10/20 08:17:04;;;;;;;22.50;9.77;;;;;;;15.19;100.00;99712.13;7395143;19;20864;-57
2021/10/20 08:19:33;;;;;;;21.20;8.67;;;;;;;15.20;100.00;99714.75;7404677;19;20398;-54
2021/10/20 08:22:03;;;;;;;38.97;14.10;;;;;;;15.24;100.00;99716.47;7396334;19;20485;-55
2021/10/20 08:24:32;;;;;;;19.40;9.13;;;;;;;15.33;100.00;99694.03;7402785;19;20423;-55
2021/10/20 08:27:02;;;;;;;14.50;6.60;;;;;;;15.34;100.00;99695.75;7396098;19;20419;-57
2021/10/20 08:29:33;;;;;;;13.00;7.97;;;;;;;15.37;100.00;99704.44;7405786;19;20394;-51
2021/10/20 08:32:05;;;;;;;12.60;6.90;;;;;;;15.38;100.00;99692.28;7396280;19;20478;-53
2021/10/20 08:34:35;;;;;;;18.73;8.53;;;;;;;15.43;100.00;99701.00;7401381;19;20419;-54
2021/10/20 08:37:05;;;;;;;15.60;5.20;;;;;;;15.46;100.00;99693.22;7395276;19;20759;-52
2021/10/20 08:39:34;;;;;;;19.10;8.40;;;;;;;15.57;100.00;99693.25;7403634;19;20452;-56
2021/10/20 08:42:04;;;;;;;23.13;9.60;;;;;;;15.55;100.00;99696.72;7396465;19;20479;-52
2021/10/20 08:44:34;;;;;;;17.07;6.90;;;;;;;15.62;100.00;99696.75;7401985;19;20445;-57
2021/10/20 08:47:08;;;;;;;11.40;7.53;;;;;;;15.77;100.00;99674.25;7392711;19;20771;-54
2021/10/20 08:49:40;;;;;;;18.07;8.47;;;;;;;15.78;100.00;99656.06;7403655;19;20657;-57
2021/10/20 08:52:10;;;;;;;16.77;7.20;;;;;;;15.84;100.00;99641.34;7394510;19;20494;-50
2021/10/20 08:54:39;;;;;;;9.83;5.23;;;;;;;15.85;100.00;99648.28;7405605;19;20443;-54
2021/10/20 08:57:09;;;;;;;15.93;8.60;;;;;;;15.91;100.00;99653.50;7389106;19;20483;-53
2021/10/20 08:59:38;;;;;;;17.53;9.77;;;;;;;15.96;100.00;99638.81;7402701;19;20470;-55
2021/10/20 09:02:10;;;;;;;12.23;7.43;;;;;;;15.94;100.00;99640.53;7395663;19;20427;-54
2021/10/20 09:04:40;;;;;;;14.03;6.80;;;;;;;15.95;100.00;99629.28;7405503;19;20420;-59
2021/10/20 09:07:15;;;;;;;14.00;8.97;;;;;;;15.99;100.00;99633.59;7394595;19;20422;-56
2021/10/20 09:09:45;;;;;;;13.33;8.13;;;;;;;15.97;100.00;99624.94;7402934;19;20389;-55
2021/10/20 09:12:14;;;;;;;12.40;6.77;;;;;;;15.99;100.00;99622.34;7387002;19;20411;-56
2021/10/20 09:14:44;;;;;;;9.70;5.60;;;;;;;15.99;100.00;99611.94;7400473;19;20431;-58
2021/10/20 09:17:16;;;;;;;25.47;12.17;;;;;;;16.06;100.00;99608.47;7394370;19;20447;-57
2021/10/20 09:19:45;;;;;;;19.10;11.30;;;;;;;16.12;100.00;99612.81;7404617;19;20471;-51
2021/10/20 09:22:15;;;;;;;25.20;12.23;;;;;;;16.21;100.00;99623.25;7395511;19;20899;-55
2021/10/20 09:24:46;;;;;;;15.97;8.13;;;;;;;16.22;100.00;99624.09;7400776;19;20430;-53
2021/10/20 09:27:24;;;;;;;15.33;8.63;;;;;;;16.27;100.00;99623.25;7384290;19;20818;-56
2021/10/20 09:30:10;;;;;;;26.93;12.57;;;;;;;16.42;100.00;99614.53;7405206;19;20459;-56
2021/10/20 09:32:42;;;;;;;15.77;8.60;;;;;;;16.45;100.00;99621.47;7401075;19;20421;-56
2021/10/20 09:35:13;;;;;;;24.10;11.30;;;;;;;16.43;100.00;99618.91;7382357;19;20507;-54
2021/10/20 09:37:43;;;;;;;27.20;11.30;;;;;;;16.37;100.00;99616.28;7402045;19;20459;-56
2021/10/20 09:40:15;;;;;;;12.40;7.60;;;;;;;16.35;100.00;99605.00;7395925;19;20404;-55
2021/10/20 09:42:45;;;;;;;17.13;9.07;;;;;;;16.33;100.00;99618.03;7401773;19;20740;-53
2021/10/20 09:45:17;;;;;;;15.13;8.40;;;;;;;16.29;100.00;99605.88;7393384;19;20419;-55
2021/10/20 09:47:49;;;;;;;14.23;8.40;;;;;;;16.23;100.00;99608.47;7399431;19;20400;-51
2021/10/20 09:50:41;;;;;;;18.20;8.30;;;;;;;16.18;100.00;99594.59;7367040;19;20506;-59
2021/10/20 09:53:10;;;;;;;21.07;9.20;;;;;;;16.21;100.00;99581.59;7397353;19;20468;-57
2021/10/20 09:55:39;;;;;;;15.00;8.17;;;;;;;16.26;100.00;99585.03;7365423;19;20391;-55
2021/10/20 09:58:14;;;;;;;16.20;8.40;;;;;;;16.30;100.00;99591.13;7400179;19;20927;-53
2021/10/20 10:00:44;;;;;;;12.90;7.90;;;;;;;16.38;100.00;99562.50;7385740;19;20411;-53
2021/10/20 10:03:19;;;;;;;13.53;8.27;;;;;;;16.41;100.00;99567.72;7398941;19;20395;-52
2021/10/20 10:05:48;;;;;;;19.10;8.80;;;;;;;16.51;100.00;99551.19;7378046;19;20708;-58
2021/10/20 10:08:18;;;;;;;13.33;7.47;;;;;;;16.44;100.00;99547.75;7398138;19;20490;-55
2021/10/20 10:10:49;;;;;;;18.07;8.07;;;;;;;16.56;100.00;99562.47;7390604;19;20424;-56
2021/10/20 10:13:22;;;;;;;13.67;6.97;;;;;;;16.53;100.00;99554.66;7397932;19;20404;-54
2021/10/20 10:15:52;;;;;;;12.80;7.50;;;;;;;16.62;100.00;99545.09;7390274;19;20419;-60
2021/10/20 10:18:25;;;;;;;12.40;8.23;;;;;;;16.58;100.00;99539.91;7398770;19;20392;-58
2021/10/20 10:20:54;;;;;;;17.67;8.70;;;;;;;16.52;100.00;99523.44;7389237;19;20837;-56
2021/10/20 10:23:25;;;;;;;13.93;8.47;;;;;;;16.57;100.00;99516.47;7397501;19;20410;-55
2021/10/20 10:26:01;;;;;;;11.77;6.77;;;;;;;16.46;100.00;99521.72;7383241;19;20429;-52
2021/10/20 10:28:32;;;;;;;11.67;8.20;;;;;;;16.51;100.00;99527.75;7397433;19;20394;-55
2021/10/20 10:31:06;;;;;;;13.73;7.80;;;;;;;16.48;100.00;99530.38;7390988;19;20419;-57
2021/10/20 10:33:53;;;;;;;14.63;7.73;;;;;;;16.40;100.00;99519.97;7398734;19;20418;-55
2021/10/20 10:36:23;;;;;;;11.67;7.80;;;;;;;16.39;100.00;99522.56;7384094;19;21052;-56
2021/10/20 10:38:56;;;;;;;10.90;7.00;;;;;;;16.28;100.00;99526.06;7398936;19;20404;-54
2021/10/20 10:41:28;;;;;;;12.03;7.17;;;;;;;16.33;100.00;99518.25;7391442;19;20447;-55
2021/10/20 10:44:17;;;;;;;9.03;5.83;;;;;;;16.22;100.00;99514.78;7398298;19;20929;-56
2021/10/20 10:47:12;;;;;;;13.97;6.03;;;;;;;16.11;100.00;99522.63;7390336;19;20499;-54
2021/10/20 10:49:48;;;;;;;9.10;5.80;;;;;;;15.99;100.00;99533.91;7398257;19;20475;-54
2021/10/20 10:52:21;;;;;;;8.50;4.97;;;;;;;15.93;100.00;99533.03;7382252;19;20425;-57
2021/10/20 10:55:02;;;;;;;9.70;6.20;;;;;;;15.91;100.00;99531.25;7396793;19;20492;-58
2021/10/20 10:57:43;;;;;;;10.60;6.90;;;;;;;15.85;100.00;99508.72;7400636;19;20431;-54
2021/10/20 11:00:27;;;;;;;9.10;5.97;;;;;;;15.85;100.00;99500.06;7388879;19;20392;-57
2021/10/20 11:02:58;;;;;;;11.63;5.90;;;;;;;15.82;100.00;99492.25;7397871;19;20412;-56
2021/10/20 11:05:31;;;;;;;14.03;8.50;;;;;;;15.92;100.00;99491.41;7392565;19;20415;-53
2021/10/20 11:08:02;;;;;;;21.63;8.17;;;;;;;15.90;100.00;99495.72;7399306;19;20463;-54
2021/10/20 11:10:33;;;;;;;21.03;9.03;;;;;;;15.92;100.00;99488.81;7365994;19;20395;-49
2021/10/20 11:13:03;;;;;;;20.00;9.67;;;;;;;16.04;100.00;99498.34;7398674;19;20388;-50
2021/10/20 11:15:33;;;;;;;17.10;8.87;;;;;;;15.98;100.00;99490.53;7366219;19;20853;-56
2021/10/20 11:18:03;;;;;;;27.50;12.60;;;;;;;15.93;100.00;99498.34;7397896;19;20397;-55
2021/10/20 11:20:36;;;;;;;26.20;13.10;;;;;;;16.01;100.00;99486.19;7368708;19;20408;-49
2021/10/20 11:23:07;;;;;;;11.20;7.60;;;;;;;16.08;100.00;99486.19;7397205;19;20388;-50
2021/10/20 11:25:40;;;;;;;27.73;14.40;;;;;;;16.04;100.00;99485.31;7370677;19;20485;-49
2021/10/20 11:28:10;;;;;;;13.53;7.67;;;;;;;16.14;100.00;99481.84;7398496;19;20730;-54